createdAt,value
2023-01-15T00:00:02.290Z,7.56
2023-01-15T00:02:51.193Z,7.46
2023-01-15T00:05:37.181Z,7.53
2023-01-15T00:08:22.960Z,7.52
2023-01-15T00:11:08.826Z,7.52
2023-01-15T00:13:56.237Z,7.50
2023-01-15T00:16:42.187Z,7.50
2023-01-15T00:19:28.195Z,7.47
2023-01-15T00:22:14.094Z,7.50
2023-01-15T00:25:18.417Z,7.42
2023-01-15T00:28:04.690Z,7.51
2023-01-15T00:30:50.887Z,7.49
2023-01-15T00:33:36.805Z,7.44
2023-01-15T00:36:23.000Z,7.53
2023-01-15T00:39:09.366Z,7.43
2023-01-15T00:41:55.820Z,7.53
2023-01-15T00:44:41.978Z,7.49
2023-01-15T00:47:27.818Z,7.40
2023-01-15T00:50:15.349Z,7.54
2023-01-15T00:53:01.318Z,7.52
2023-01-15T00:55:47.185Z,7.49
2023-01-15T00:58:33.146Z,7.48
2023-01-15T01:01:19.234Z,7.50
2023-01-15T01:04:05.432Z,7.54
2023-01-15T01:06:51.394Z,7.52
2023-01-15T01:09:37.311Z,7.49
2023-01-15T01:12:23.800Z,7.42
2023-01-15T01:15:10.057Z,7.53
2023-01-15T01:17:56.381Z,7.53
2023-01-15T01:20:42.189Z,7.50
2023-01-15T01:23:29.679Z,7.52
2023-01-15T01:26:16.416Z,7.50
2023-01-15T01:29:03.295Z,7.41
2023-01-15T01:31:51.247Z,7.52
2023-01-15T01:34:37.926Z,7.49
2023-01-15T01:37:24.723Z,7.54
2023-01-15T01:40:11.289Z,7.48
2023-01-15T01:42:57.030Z,7.50
2023-01-15T01:45:42.797Z,7.52
2023-01-15T01:48:31.868Z,7.53
2023-01-15T01:51:19.112Z,7.49
2023-01-15T01:54:05.036Z,7.42
2023-01-15T01:56:51.605Z,7.47
2023-01-15T01:59:38.773Z,7.42
2023-01-15T02:02:24.677Z,7.48
2023-01-15T02:05:14.389Z,7.47
2023-01-15T02:08:01.095Z,7.52
2023-01-15T02:10:52.906Z,7.49
2023-01-15T02:14:04.568Z,7.47
2023-01-15T02:17:13.927Z,7.46
2023-01-15T02:20:02.698Z,7.52
2023-01-15T02:22:48.368Z,7.52
2023-01-15T02:25:43.944Z,7.51
2023-01-15T02:28:41.136Z,7.47
2023-01-15T02:31:39.318Z,7.51
2023-01-15T02:34:34.677Z,7.49
2023-01-15T02:37:29.895Z,7.51
2023-01-15T02:40:19.010Z,7.48
2023-01-15T02:43:09.795Z,7.53
2023-01-15T02:45:58.732Z,7.49
2023-01-15T02:48:52.408Z,7.39
2023-01-15T02:51:49.459Z,7.50
2023-01-15T02:54:44.317Z,7.51
2023-01-15T02:57:33.476Z,7.50
2023-01-15T03:00:20.114Z,7.50
2023-01-15T03:03:49.587Z,7.37
2023-01-15T03:06:41.136Z,7.50
2023-01-15T03:09:28.089Z,7.49
2023-01-15T03:12:28.148Z,7.37
2023-01-15T03:15:41.356Z,7.39
2023-01-15T03:18:29.539Z,7.43
2023-01-15T03:21:27.110Z,7.35
2023-01-15T03:24:15.451Z,7.47
2023-01-15T03:27:02.726Z,7.42
2023-01-15T03:29:53.105Z,7.32
2023-01-15T03:32:39.664Z,7.30
2023-01-15T03:35:52.708Z,7.28
2023-01-15T03:38:50.788Z,7.39
2023-01-15T03:42:24.416Z,7.34
2023-01-15T03:45:12.931Z,7.41
2023-01-15T03:48:08.067Z,7.41
2023-01-15T03:51:09.109Z,7.35
2023-01-15T03:53:58.162Z,7.35
2023-01-15T03:56:55.747Z,7.32
2023-01-15T03:59:50.871Z,7.25
2023-01-15T04:02:37.754Z,7.36
2023-01-15T04:05:25.764Z,7.23
2023-01-15T04:08:12.944Z,7.16
2023-01-15T04:11:00.600Z,7.32
2023-01-15T04:13:51.344Z,7.18
2023-01-15T04:16:48.278Z,7.23
2023-01-15T04:19:34.189Z,7.28
2023-01-15T04:22:23.652Z,7.27
2023-01-15T04:25:13.758Z,7.29
2023-01-15T04:27:59.949Z,7.27
2023-01-15T04:30:46.539Z,7.30
2023-01-15T04:33:32.303Z,7.32
2023-01-15T04:36:18.123Z,7.32
2023-01-15T04:39:05.134Z,7.34
2023-01-15T04:42:09.676Z,7.29
2023-01-15T04:44:55.755Z,7.31
2023-01-15T04:47:41.732Z,7.22
2023-01-15T04:50:28.682Z,7.30
2023-01-15T04:53:14.815Z,7.23
2023-01-15T04:56:02.305Z,7.21
2023-01-15T04:58:49.321Z,7.16
2023-01-15T05:01:35.803Z,7.17
2023-01-15T05:04:22.595Z,7.17
2023-01-15T05:07:09.726Z,7.18
2023-01-15T05:09:55.710Z,7.10
2023-01-15T05:12:41.642Z,7.08
2023-01-15T05:15:27.468Z,7.06
2023-01-15T05:18:16.064Z,7.10
2023-01-15T05:21:01.802Z,7.01
2023-01-15T05:23:48.675Z,7.01
2023-01-15T05:26:35.412Z,6.92
2023-01-15T05:29:21.386Z,7.02
2023-01-15T05:32:09.516Z,7.00
2023-01-15T05:34:55.606Z,7.00
2023-01-15T05:37:41.422Z,6.98
2023-01-15T05:40:27.376Z,6.99
2023-01-15T05:43:13.329Z,7.00
2023-01-15T05:46:02.319Z,7.02
2023-01-15T05:48:48.514Z,7.04
2023-01-15T05:51:36.367Z,7.06
2023-01-15T05:54:25.095Z,7.00
2023-01-15T05:57:12.969Z,6.99
2023-01-15T05:59:59.240Z,6.93
2023-01-15T06:02:49.118Z,7.00
2023-01-15T06:05:34.828Z,6.98
2023-01-15T06:08:21.960Z,6.96
2023-01-15T06:11:07.834Z,7.00
2023-01-15T06:13:53.848Z,6.98
2023-01-15T06:16:41.322Z,6.98
2023-01-15T06:19:28.005Z,6.99
2023-01-15T06:22:13.949Z,7.03
2023-01-15T06:24:59.836Z,7.01
2023-01-15T06:27:45.872Z,7.03
2023-01-15T06:30:31.792Z,7.09
2023-01-15T06:33:17.681Z,7.08
2023-01-15T06:36:08.780Z,7.09
2023-01-15T06:38:55.354Z,7.11
2023-01-15T06:41:59.897Z,7.12
2023-01-15T06:45:04.693Z,7.11
2023-01-15T06:47:50.719Z,7.14
2023-01-15T06:50:36.641Z,7.17
2023-01-15T06:53:23.002Z,7.15
2023-01-15T06:56:09.125Z,7.14
2023-01-15T06:58:56.577Z,7.19
2023-01-15T07:01:42.858Z,7.18
2023-01-15T07:04:28.719Z,7.21
2023-01-15T07:07:19.587Z,7.19
2023-01-15T07:10:06.189Z,7.19
2023-01-15T07:12:52.309Z,7.19
2023-01-15T07:15:39.700Z,7.16
2023-01-15T07:18:26.623Z,7.19
2023-01-15T07:21:12.852Z,7.18
2023-01-15T07:23:59.710Z,7.22
2023-01-15T07:26:46.084Z,7.25
2023-01-15T07:29:31.881Z,7.23
2023-01-15T07:32:17.989Z,7.06
2023-01-15T07:35:04.870Z,7.17
2023-01-15T07:37:53.856Z,7.18
2023-01-15T07:40:39.717Z,7.04
2023-01-15T07:43:57.993Z,7.06
2023-01-15T07:47:03.659Z,7.11
2023-01-15T07:49:52.107Z,7.15
2023-01-15T07:52:38.284Z,7.05
2023-01-15T07:55:24.642Z,7.14
2023-01-15T07:58:10.629Z,7.15
2023-01-15T08:00:56.430Z,7.22
2023-01-15T08:03:42.368Z,7.19
2023-01-15T08:06:28.098Z,7.04
2023-01-15T08:09:14.030Z,7.19
2023-01-15T08:12:19.505Z,7.29
2023-01-15T08:15:14.945Z,7.29
2023-01-15T08:18:01.082Z,7.31
2023-01-15T08:20:47.364Z,7.42
2023-01-15T08:23:33.599Z,7.48
2023-01-15T08:26:19.302Z,7.50
2023-01-15T08:29:05.063Z,7.52
2023-01-15T08:31:51.049Z,7.66
2023-01-15T08:34:36.957Z,7.77
2023-01-15T08:37:25.271Z,7.77
2023-01-15T08:40:12.757Z,7.83
2023-01-15T08:42:58.657Z,7.92
2023-01-15T08:45:44.401Z,7.94
2023-01-15T08:48:31.982Z,8.08
2023-01-15T08:51:18.074Z,8.26
2023-01-15T08:54:04.108Z,8.27
2023-01-15T08:56:50.206Z,8.27
2023-01-15T08:59:35.971Z,8.34
2023-01-15T09:02:22.034Z,8.39
2023-01-15T09:05:08.130Z,8.42
2023-01-15T09:07:55.057Z,8.49
2023-01-15T09:10:40.792Z,8.47
2023-01-15T09:13:27.681Z,8.53
2023-01-15T09:16:13.597Z,8.45
2023-01-15T09:18:59.294Z,8.56
2023-01-15T09:21:45.138Z,8.50
2023-01-15T09:24:31.011Z,8.42
2023-01-15T09:27:17.017Z,8.50
2023-01-15T09:30:02.873Z,8.43
2023-01-15T09:32:49.249Z,8.52
2023-01-15T09:35:35.090Z,8.46
2023-01-15T09:38:21.958Z,8.50
2023-01-15T09:41:31.951Z,8.56
2023-01-15T09:44:37.597Z,8.51
2023-01-15T09:47:28.047Z,8.64
2023-01-15T09:50:51.557Z,8.65
2023-01-15T09:54:05.778Z,8.71
2023-01-15T09:56:52.115Z,8.78
2023-01-15T09:59:43.700Z,8.66
2023-01-15T10:02:32.770Z,8.87
2023-01-15T10:05:24.696Z,8.88
2023-01-15T10:08:21.128Z,8.89
2023-01-15T10:11:23.577Z,8.83
2023-01-15T10:14:12.727Z,8.84
2023-01-15T10:16:59.027Z,8.83
2023-01-15T10:19:45.161Z,8.95
2023-01-15T10:22:40.157Z,8.95
2023-01-15T10:25:29.474Z,8.95
2023-01-15T10:28:28.656Z,8.91
2023-01-15T10:31:24.678Z,8.90
2023-01-15T10:34:25.977Z,8.99
2023-01-15T10:37:22.216Z,8.92
2023-01-15T10:40:33.250Z,8.95
2023-01-15T10:43:41.001Z,8.90
2023-01-15T10:46:33.639Z,9.02
2023-01-15T10:49:19.775Z,8.98
2023-01-15T10:52:29.249Z,9.05
2023-01-15T10:55:25.845Z,9.20
2023-01-15T10:58:35.764Z,9.12
2023-01-15T11:01:24.310Z,9.29
2023-01-15T11:04:13.485Z,9.33
2023-01-15T11:07:01.259Z,9.41
2023-01-15T11:09:47.256Z,9.40
2023-01-15T11:12:53.283Z,9.58
2023-01-15T11:15:58.331Z,9.59
2023-01-15T11:19:03.536Z,9.61
2023-01-15T11:21:50.323Z,9.69
2023-01-15T11:24:47.799Z,9.70
2023-01-15T11:27:34.499Z,9.83
2023-01-15T11:30:32.714Z,9.80
2023-01-15T11:33:24.491Z,9.88
2023-01-15T11:36:22.825Z,9.91
2023-01-15T11:39:30.880Z,9.97
2023-01-15T11:42:35.847Z,10.04
2023-01-15T11:45:41.685Z,10.16
2023-01-15T11:48:46.371Z,10.24
2023-01-15T11:51:41.989Z,10.26
2023-01-15T11:54:30.044Z,10.30
2023-01-15T11:57:27.637Z,10.35
2023-01-15T12:00:33.327Z,10.27
2023-01-15T12:03:23.035Z,10.31
2023-01-15T12:06:12.055Z,10.42
2023-01-15T12:09:33.672Z,10.43
2023-01-15T12:12:27.677Z,10.38
2023-01-15T12:15:31.867Z,10.42
2023-01-15T12:18:45.635Z,10.48
2023-01-15T12:21:53.576Z,10.55
2023-01-15T12:24:48.749Z,10.64
2023-01-15T12:28:20.034Z,10.68
2023-01-15T12:31:16.616Z,10.71
2023-01-15T12:34:18.229Z,10.68
2023-01-15T12:37:15.072Z,10.84
2023-01-15T12:40:24.465Z,10.70
2023-01-15T12:43:38.429Z,10.79
2023-01-15T12:46:31.439Z,10.84
2023-01-15T12:49:26.329Z,10.86
2023-01-15T12:52:18.044Z,10.87
2023-01-15T12:55:14.673Z,10.91
2023-01-15T12:58:01.555Z,10.90
2023-01-15T13:00:48.769Z,10.98
2023-01-15T13:03:49.340Z,11.07
2023-01-15T13:06:35.964Z,11.14
2023-01-15T13:09:38.829Z,11.21
2023-01-15T13:12:25.642Z,11.32
2023-01-15T13:15:19.100Z,11.34
2023-01-15T13:18:23.307Z,11.42
2023-01-15T13:21:20.481Z,11.78
2023-01-15T13:24:18.593Z,11.75
2023-01-15T13:27:37.116Z,12.53
2023-01-15T13:30:49.260Z,14.11
2023-01-15T13:33:42.715Z,16.00
2023-01-15T13:36:33.559Z,17.55
2023-01-15T13:39:22.224Z,19.45
2023-01-15T13:42:32.953Z,21.09
2023-01-15T13:45:19.154Z,22.22
2023-01-15T13:48:18.589Z,21.88
2023-01-15T13:51:06.394Z,21.80
2023-01-15T13:53:52.988Z,22.27
2023-01-15T13:56:40.056Z,22.12
2023-01-15T13:59:38.755Z,21.18
2023-01-15T14:02:25.545Z,20.09
2023-01-15T14:05:28.228Z,18.85
2023-01-15T14:08:17.443Z,17.85
2023-01-15T14:11:03.865Z,17.10
2023-01-15T14:14:23.385Z,16.28
2023-01-15T14:17:34.119Z,15.61
2023-01-15T14:20:23.410Z,15.10
2023-01-15T14:23:28.501Z,14.55
2023-01-15T14:26:25.039Z,14.19
2023-01-15T14:29:34.875Z,13.75
2023-01-15T14:32:44.970Z,13.53
2023-01-15T14:35:36.733Z,13.25
2023-01-15T14:38:27.349Z,13.02
2023-01-15T14:41:13.713Z,12.74
2023-01-15T14:44:03.130Z,12.42
2023-01-15T14:47:01.637Z,12.32
2023-01-15T14:49:50.219Z,12.11
2023-01-15T14:52:36.484Z,11.99
2023-01-15T14:55:22.610Z,11.86
2023-01-15T14:58:17.730Z,11.74
2023-01-15T15:01:27.713Z,11.46
2023-01-15T15:04:20.069Z,11.38
2023-01-15T15:07:12.512Z,11.17
2023-01-15T15:10:10.961Z,10.95
2023-01-15T15:13:18.978Z,11.02
2023-01-15T15:16:08.765Z,10.91
2023-01-15T15:19:00.421Z,10.81
2023-01-15T15:21:47.454Z,10.73
2023-01-15T15:24:37.388Z,10.64
2023-01-15T15:27:23.924Z,10.58
2023-01-15T15:30:12.242Z,10.51
2023-01-15T15:32:58.160Z,10.47
2023-01-15T15:35:50.523Z,10.33
2023-01-15T15:38:40.428Z,10.32
2023-01-15T15:41:48.416Z,10.20
2023-01-15T15:45:10.467Z,10.18
2023-01-15T15:48:15.434Z,10.16
2023-01-15T15:51:02.999Z,10.13
2023-01-15T15:53:48.827Z,10.09
2023-01-15T15:56:35.163Z,10.08
2023-01-15T15:59:33.002Z,9.85
2023-01-15T16:02:31.576Z,10.02
2023-01-15T16:05:24.118Z,9.84
2023-01-15T16:08:16.310Z,9.91
2023-01-15T16:11:12.157Z,9.82
2023-01-15T16:14:01.715Z,9.78
2023-01-15T16:16:49.580Z,9.66
2023-01-15T16:19:35.682Z,9.71
2023-01-15T16:22:22.348Z,9.58
2023-01-15T16:25:22.085Z,9.40
2023-01-15T16:28:24.005Z,9.44
2023-01-15T16:31:11.491Z,9.36
2023-01-15T16:33:58.561Z,9.33
2023-01-15T16:36:45.651Z,9.34
2023-01-15T16:39:40.936Z,9.28
2023-01-15T16:42:34.624Z,9.07
2023-01-15T16:45:27.509Z,9.16
2023-01-15T16:48:31.187Z,9.02
2023-01-15T16:51:36.478Z,9.04
2023-01-15T16:54:31.747Z,9.03
2023-01-15T16:57:29.882Z,8.93
2023-01-15T17:00:30.681Z,8.80
2023-01-15T17:03:19.958Z,8.89
2023-01-15T17:06:13.231Z,8.83
2023-01-15T17:08:59.497Z,8.84
2023-01-15T17:11:50.234Z,8.72
2023-01-15T17:14:35.923Z,8.70
2023-01-15T17:17:21.841Z,8.65
2023-01-15T17:20:12.811Z,8.65
2023-01-15T17:22:58.864Z,8.57
2023-01-15T17:25:47.245Z,8.56
2023-01-15T17:28:33.519Z,8.50
2023-01-15T17:31:31.182Z,8.49
2023-01-15T17:34:23.515Z,8.43
2023-01-15T17:37:09.922Z,7.94
2023-01-15T17:39:57.557Z,8.38
2023-01-15T17:42:43.993Z,8.05
2023-01-15T17:45:31.820Z,8.26
2023-01-15T17:48:18.555Z,8.25
2023-01-15T17:51:06.940Z,8.19
2023-01-15T17:53:53.039Z,8.17
2023-01-15T17:56:57.451Z,8.10
2023-01-15T18:00:02.000Z,8.08
2023-01-15T18:03:16.774Z,8.07
2023-01-15T18:06:03.053Z,8.02
2023-01-15T18:08:53.642Z,7.92
2023-01-15T18:11:39.692Z,7.96
2023-01-15T18:14:26.580Z,7.92
2023-01-15T18:17:12.849Z,7.93
2023-01-15T18:19:58.648Z,7.88
2023-01-15T18:22:44.599Z,7.84
2023-01-15T18:25:30.410Z,7.78
2023-01-15T18:28:16.396Z,7.74
2023-01-15T18:31:03.314Z,7.78
2023-01-15T18:33:49.519Z,7.65
2023-01-15T18:36:35.299Z,7.63
2023-01-15T18:39:21.463Z,7.57
2023-01-15T18:42:07.294Z,7.66
2023-01-15T18:45:11.879Z,7.67
2023-01-15T18:48:01.183Z,7.61
2023-01-15T18:50:48.895Z,7.53
2023-01-15T18:53:35.180Z,7.50
2023-01-15T18:56:39.061Z,7.41
2023-01-15T18:59:24.898Z,7.37
2023-01-15T19:02:10.964Z,7.32
2023-01-15T19:04:56.633Z,7.30
2023-01-15T19:07:46.277Z,7.28
2023-01-15T19:10:32.594Z,7.27
2023-01-15T19:13:19.504Z,7.20
2023-01-15T19:16:24.991Z,7.11
2023-01-15T19:19:11.517Z,7.15
2023-01-15T19:22:16.177Z,7.19
2023-01-15T19:25:02.558Z,7.14
2023-01-15T19:27:50.059Z,7.01
2023-01-15T19:30:38.383Z,7.09
2023-01-15T19:33:24.537Z,7.03
2023-01-15T19:36:10.677Z,6.95
2023-01-15T19:38:56.595Z,6.98
2023-01-15T19:42:00.861Z,7.03
2023-01-15T19:45:05.561Z,7.02
2023-01-15T19:48:10.220Z,6.95
2023-01-15T19:50:56.559Z,6.93
2023-01-15T19:53:42.874Z,6.98
2023-01-15T19:56:28.949Z,6.95
2023-01-15T19:59:18.235Z,6.93
2023-01-15T20:02:04.462Z,6.92
2023-01-15T20:04:50.944Z,6.91
2023-01-15T20:07:37.982Z,6.90
2023-01-15T20:10:26.674Z,6.88
2023-01-15T20:13:38.037Z,6.86
2023-01-15T20:16:25.660Z,6.80
2023-01-15T20:19:11.838Z,6.79
2023-01-15T20:21:58.048Z,6.81
2023-01-15T20:24:44.564Z,6.74
2023-01-15T20:27:32.442Z,6.77
2023-01-15T20:30:23.195Z,6.77
2023-01-15T20:33:09.910Z,6.74
2023-01-15T20:35:55.966Z,6.70
2023-01-15T20:38:42.431Z,6.71
2023-01-15T20:41:47.183Z,6.68
2023-01-15T20:44:51.770Z,6.61
2023-01-15T20:47:58.197Z,6.57
2023-01-15T20:51:04.396Z,6.59
2023-01-15T20:53:51.594Z,6.48
2023-01-15T20:56:37.710Z,6.55
2023-01-15T20:59:23.670Z,6.51
2023-01-15T21:02:15.626Z,6.49
2023-01-15T21:05:01.552Z,6.47
2023-01-15T21:07:47.602Z,6.44
2023-01-15T21:10:33.581Z,6.45
2023-01-15T21:13:22.917Z,6.40
2023-01-15T21:16:09.936Z,6.33
2023-01-15T21:18:56.380Z,6.43
2023-01-15T21:21:42.157Z,6.38
2023-01-15T21:24:28.357Z,6.39
2023-01-15T21:27:15.226Z,6.39
2023-01-15T21:30:01.240Z,6.33
2023-01-15T21:32:48.651Z,6.32
2023-01-15T21:35:38.904Z,6.30
2023-01-15T21:38:24.746Z,6.28
2023-01-15T21:41:12.849Z,6.14
2023-01-15T21:44:17.443Z,6.22
2023-01-15T21:47:11.080Z,6.22
2023-01-15T21:49:57.698Z,6.15
2023-01-15T21:52:43.851Z,6.11
2023-01-15T21:55:30.080Z,6.11
2023-01-15T21:58:16.393Z,6.13
2023-01-15T22:01:08.524Z,6.02
2023-01-15T22:03:54.733Z,6.01
2023-01-15T22:06:40.636Z,6.05
2023-01-15T22:09:26.469Z,5.83
2023-01-15T22:12:13.178Z,5.96
2023-01-15T22:14:59.229Z,5.97
2023-01-15T22:17:45.314Z,5.91
2023-01-15T22:20:31.585Z,5.91
2023-01-15T22:23:17.482Z,5.87
2023-01-15T22:26:03.359Z,5.86
2023-01-15T22:28:49.451Z,5.84
2023-01-15T22:31:35.338Z,5.80
2023-01-15T22:34:22.495Z,5.79
2023-01-15T22:37:08.795Z,5.75
2023-01-15T22:39:55.379Z,5.72
2023-01-15T22:42:41.298Z,5.62
2023-01-15T22:45:27.380Z,5.63
2023-01-15T22:48:13.766Z,5.59
2023-01-15T22:50:59.793Z,5.58
2023-01-15T22:53:45.743Z,5.51
2023-01-15T22:56:31.507Z,5.48
2023-01-15T22:59:17.624Z,5.38
2023-01-15T23:02:03.974Z,5.38
2023-01-15T23:04:50.295Z,5.45
2023-01-15T23:07:39.853Z,5.48
2023-01-15T23:10:26.938Z,5.46
2023-01-15T23:13:13.622Z,5.44
2023-01-15T23:16:00.902Z,5.43
2023-01-15T23:18:47.051Z,5.38
2023-01-15T23:21:33.785Z,5.42
2023-01-15T23:24:19.591Z,5.39
2023-01-15T23:27:05.622Z,5.34
2023-01-15T23:29:51.486Z,5.40
2023-01-15T23:32:39.659Z,5.37
2023-01-15T23:35:25.968Z,5.35
2023-01-15T23:38:12.365Z,5.22
2023-01-15T23:40:58.278Z,5.34
2023-01-15T23:44:02.509Z,5.31
2023-01-15T23:46:48.553Z,5.25
2023-01-15T23:49:34.522Z,5.23
2023-01-15T23:52:20.651Z,5.23
2023-01-15T23:55:07.109Z,5.21
2023-01-15T23:57:53.207Z,5.11
